Terminal Aerodrome Forecast
Issued by NWS Shreveport, LA

Home | Current Version | Previous Version | Text Only | Print | Product List | Glossary On
Versions: 1 2 3 4 5 6 7 8 9 10 11 12 13 14 15 16 17
423
FTUS44 KSHV 061733
TAFSHV
TAF
KSHV 061733Z 0618/0718 30006KT P6SM SCT008 OVC015
      TEMPO 0618/0622 OVC006
     FM070300 05004KT P6SM OVC008
      TEMPO 0709/0713 3SM BR OVC004=

USA.gov is the U.S. government's official web portal to all federal, state and local government web resources and services.